createdAt,value
2022-08-27T00:00:03.320Z,22.30
2022-08-27T00:00:12.775Z,22.30
2022-08-27T00:00:22.204Z,22.30
2022-08-27T00:00:31.650Z,22.20
2022-08-27T00:00:41.090Z,22.20
2022-08-27T00:00:50.529Z,22.20
2022-08-27T00:00:59.968Z,22.20
2022-08-27T00:01:12.033Z,22.10
2022-08-27T00:01:18.942Z,22.20
2022-08-27T00:01:28.365Z,22.10
2022-08-27T00:01:37.882Z,22.10
2022-08-27T00:01:47.302Z,22.10
2022-08-27T00:02:06.159Z,22.10
2022-08-27T00:02:15.634Z,22.00
2022-08-27T00:02:25.036Z,22.00
2022-08-27T00:02:34.438Z,22.00
2022-08-27T00:02:43.902Z,22.00
2022-08-27T00:02:53.337Z,22.00
2022-08-27T00:03:02.747Z,22.00
2022-08-27T00:03:12.458Z,21.90
2022-08-27T00:03:21.912Z,21.90
2022-08-27T00:03:31.337Z,21.90
2022-08-27T00:03:40.766Z,21.90
2022-08-27T00:03:50.339Z,21.90
2022-08-27T00:03:59.723Z,21.90
2022-08-27T00:04:09.185Z,21.90
2022-08-27T00:04:18.601Z,21.80
2022-08-27T00:04:28.037Z,21.80
2022-08-27T00:04:37.522Z,21.80
2022-08-27T00:04:46.937Z,21.80
2022-08-27T00:05:05.818Z,21.80
2022-08-27T00:05:15.262Z,21.80
2022-08-27T00:05:24.696Z,21.80
2022-08-27T00:05:34.124Z,21.70
2022-08-27T00:05:43.561Z,21.70
2022-08-27T00:05:53.042Z,21.70
2022-08-27T00:06:02.482Z,21.70
2022-08-27T00:06:11.922Z,21.70
2022-08-27T00:06:21.592Z,21.70
2022-08-27T00:06:31.032Z,21.70
2022-08-27T00:06:40.467Z,21.70
2022-08-27T00:06:49.915Z,21.70
2022-08-27T00:06:59.335Z,21.70
2022-08-27T00:07:08.783Z,21.60
2022-08-27T00:07:18.202Z,21.60
2022-08-27T00:07:28.152Z,21.60
2022-08-27T00:07:37.837Z,21.60
2022-08-27T00:07:47.270Z,21.60
2022-08-27T00:08:06.121Z,21.60
2022-08-27T00:08:15.544Z,21.60
2022-08-27T00:08:24.983Z,21.60
2022-08-27T00:08:34.449Z,21.60
2022-08-27T00:08:43.873Z,21.50
2022-08-27T00:08:53.301Z,21.50
2022-08-27T00:09:02.767Z,21.50
2022-08-27T00:09:12.216Z,21.50
2022-08-27T00:09:26.476Z,21.50
2022-08-27T00:09:31.156Z,21.50
2022-08-27T00:09:40.580Z,21.50
2022-08-27T00:09:50.017Z,21.50
2022-08-27T00:09:59.440Z,21.50
2022-08-27T00:10:08.883Z,21.50
2022-08-27T00:10:18.332Z,21.50
2022-08-27T00:10:27.776Z,21.50
2022-08-27T00:10:37.225Z,21.50
2022-08-27T00:10:56.232Z,21.50
2022-08-27T00:11:05.673Z,21.50
2022-08-27T00:11:15.150Z,21.40
2022-08-27T00:11:24.604Z,21.40
2022-08-27T00:11:34.020Z,21.40
2022-08-27T00:11:43.439Z,21.40
2022-08-27T00:11:52.925Z,21.40
2022-08-27T00:12:02.400Z,21.50
2022-08-27T00:12:11.848Z,21.40
2022-08-27T00:12:21.310Z,21.40
2022-08-27T00:12:30.804Z,21.40
2022-08-27T00:12:40.236Z,21.40
2022-08-27T00:12:49.670Z,21.40
2022-08-27T00:12:59.195Z,21.40
2022-08-27T00:13:08.637Z,21.40
2022-08-27T00:13:18.087Z,21.40
2022-08-27T00:13:27.523Z,21.40
2022-08-27T00:13:36.958Z,21.40
2022-08-27T00:13:55.824Z,21.40
2022-08-27T00:14:05.269Z,21.40
2022-08-27T00:14:14.708Z,21.40
2022-08-27T00:14:24.140Z,21.40
2022-08-27T00:14:33.565Z,21.40
2022-08-27T00:14:42.980Z,21.40
2022-08-27T00:14:52.399Z,21.40
2022-08-27T00:15:01.820Z,21.40
2022-08-27T00:15:11.246Z,21.40
2022-08-27T00:15:20.715Z,21.40
2022-08-27T00:15:30.158Z,21.40
2022-08-27T00:15:39.598Z,21.40
2022-08-27T00:15:49.066Z,21.40
2022-08-27T00:15:58.544Z,21.40
2022-08-27T00:16:08.024Z,21.40
2022-08-27T00:16:17.486Z,21.40
2022-08-27T00:16:26.918Z,21.40
2022-08-27T00:16:45.753Z,21.40
2022-08-27T00:16:55.251Z,21.40
2022-08-27T00:17:04.612Z,21.40
2022-08-27T00:17:14.025Z,21.40
2022-08-27T00:17:23.484Z,21.40
2022-08-27T00:17:32.893Z,21.40
2022-08-27T00:17:42.320Z,21.40
2022-08-27T00:17:51.768Z,21.40
2022-08-27T00:18:01.196Z,21.40
2022-08-27T00:18:10.715Z,21.40
2022-08-27T00:18:22.699Z,21.40
2022-08-27T00:18:29.543Z,21.40
2022-08-27T00:18:38.973Z,21.40
2022-08-27T00:18:48.472Z,21.40
2022-08-27T00:18:57.842Z,21.40
2022-08-27T00:19:07.282Z,21.40
2022-08-27T00:19:26.125Z,21.30
2022-08-27T00:19:35.549Z,21.30
2022-08-27T00:19:44.992Z,21.30
2022-08-27T00:19:54.443Z,21.30
2022-08-27T00:20:03.932Z,21.30
2022-08-27T00:20:13.386Z,21.30
2022-08-27T00:20:22.872Z,21.30
2022-08-27T00:20:32.337Z,21.20
2022-08-27T00:20:41.764Z,21.30
2022-08-27T00:20:51.228Z,21.30
2022-08-27T00:21:00.722Z,21.30
2022-08-27T00:21:10.155Z,21.40
2022-08-27T00:21:19.626Z,21.30
2022-08-27T00:21:29.086Z,21.30
2022-08-27T00:21:38.509Z,21.30
2022-08-27T00:21:47.944Z,21.30
2022-08-27T00:21:57.412Z,21.30
2022-08-27T00:22:06.839Z,21.30
2022-08-27T00:22:25.726Z,21.30
2022-08-27T00:22:35.172Z,21.10
2022-08-27T00:22:44.606Z,21.30
2022-08-27T00:22:54.066Z,21.30
2022-08-27T00:23:03.523Z,21.30
2022-08-27T00:23:12.946Z,21.30
2022-08-27T00:23:22.366Z,21.30
2022-08-27T00:23:31.842Z,21.30
2022-08-27T00:23:41.309Z,21.30
2022-08-27T00:23:50.728Z,21.30
2022-08-27T00:24:00.181Z,21.30
2022-08-27T00:24:09.625Z,21.30
2022-08-27T00:24:19.054Z,21.30
2022-08-27T00:24:28.476Z,21.30
2022-08-27T00:24:42.076Z,21.30
2022-08-27T00:24:49.028Z,21.30
2022-08-27T00:24:56.794Z,21.30
2022-08-27T00:25:15.675Z,21.30
2022-08-27T00:25:25.120Z,21.30
2022-08-27T00:25:34.544Z,21.30
2022-08-27T00:25:43.978Z,21.30
2022-08-27T00:25:53.416Z,21.30
2022-08-27T00:26:02.889Z,21.30
2022-08-27T00:26:12.534Z,21.40
2022-08-27T00:26:22.030Z,21.20
2022-08-27T00:26:31.485Z,21.20
2022-08-27T00:26:43.301Z,21.20
2022-08-27T00:26:50.370Z,21.20
2022-08-27T00:26:59.822Z,21.20
2022-08-27T00:27:09.238Z,21.30
2022-08-27T00:27:18.701Z,21.30
2022-08-27T00:27:28.129Z,21.20
2022-08-27T00:27:37.581Z,21.20
2022-08-27T00:27:47.073Z,21.20
2022-08-27T00:28:05.977Z,21.20
2022-08-27T00:28:15.411Z,21.20
2022-08-27T00:28:24.841Z,21.20
2022-08-27T00:28:34.300Z,21.20
2022-08-27T00:28:43.736Z,21.20
2022-08-27T00:28:53.214Z,21.20
2022-08-27T00:29:02.638Z,21.20
2022-08-27T00:29:12.056Z,21.30
2022-08-27T00:29:21.558Z,21.20
2022-08-27T00:29:30.985Z,21.20
2022-08-27T00:29:40.430Z,21.20
2022-08-27T00:29:49.923Z,21.20
2022-08-27T00:29:59.352Z,21.20
2022-08-27T00:30:08.792Z,21.20
2022-08-27T00:30:18.214Z,21.20
2022-08-27T00:30:27.629Z,21.20
2022-08-27T00:30:37.065Z,21.20
2022-08-27T00:30:55.922Z,21.20
2022-08-27T00:31:05.354Z,21.20
2022-08-27T00:31:14.831Z,21.20
2022-08-27T00:31:27.540Z,21.20
2022-08-27T00:31:33.670Z,21.20
2022-08-27T00:31:43.159Z,21.20
2022-08-27T00:31:54.042Z,21.20
2022-08-27T00:32:01.954Z,21.20
2022-08-27T00:32:11.412Z,21.20
2022-08-27T00:32:20.814Z,21.20
2022-08-27T00:32:30.267Z,21.20
2022-08-27T00:32:39.674Z,21.20
2022-08-27T00:32:49.119Z,21.20
2022-08-27T00:32:58.537Z,21.20
2022-08-27T00:33:07.964Z,21.20
2022-08-27T00:33:17.385Z,21.20
2022-08-27T00:33:26.800Z,21.20
2022-08-27T00:33:45.648Z,21.20
2022-08-27T00:33:55.064Z,21.20
2022-08-27T00:34:04.504Z,21.20
2022-08-27T00:34:13.927Z,21.20
2022-08-27T00:34:23.354Z,21.20
2022-08-27T00:34:32.752Z,21.20
2022-08-27T00:34:42.197Z,21.20
2022-08-27T00:34:51.659Z,21.20
2022-08-27T00:35:01.096Z,21.20
2022-08-27T00:35:10.559Z,21.20
2022-08-27T00:35:20.022Z,21.20
2022-08-27T00:35:29.445Z,21.20
2022-08-27T00:35:38.882Z,21.20
2022-08-27T00:35:48.319Z,21.20
2022-08-27T00:35:57.758Z,21.20
2022-08-27T00:36:07.248Z,21.20
2022-08-27T00:36:26.090Z,21.20
2022-08-27T00:36:35.544Z,21.20
2022-08-27T00:36:44.984Z,21.20
2022-08-27T00:36:54.410Z,21.20
2022-08-27T00:37:03.832Z,21.20
2022-08-27T00:37:13.274Z,21.20
2022-08-27T00:37:22.822Z,21.20
2022-08-27T00:37:32.257Z,21.20
2022-08-27T00:37:41.702Z,21.20
2022-08-27T00:37:51.118Z,21.20
2022-08-27T00:38:00.550Z,21.20
2022-08-27T00:38:10.217Z,21.20
2022-08-27T00:38:20.614Z,21.20
2022-08-27T00:38:30.070Z,21.20
2022-08-27T00:38:39.473Z,21.20
2022-08-27T00:38:48.897Z,21.20
2022-08-27T00:38:58.345Z,21.20
2022-08-27T00:39:07.792Z,21.20
2022-08-27T00:39:17.238Z,21.20
2022-08-27T00:39:36.094Z,21.20
2022-08-27T00:39:45.550Z,21.20
2022-08-27T00:39:54.992Z,21.20
2022-08-27T00:40:04.553Z,21.20
2022-08-27T00:40:13.922Z,21.20
2022-08-27T00:40:23.502Z,21.20
2022-08-27T00:40:32.827Z,21.20
2022-08-27T00:40:42.212Z,21.20
2022-08-27T00:40:51.645Z,21.20
2022-08-27T00:41:01.110Z,21.20
2022-08-27T00:41:10.582Z,21.20
2022-08-27T00:41:20.207Z,21.20
2022-08-27T00:41:29.648Z,21.20
2022-08-27T00:41:39.118Z,21.20
2022-08-27T00:41:48.674Z,21.20
2022-08-27T00:41:58.098Z,21.20
2022-08-27T00:42:07.552Z,21.20
2022-08-27T00:42:17.004Z,21.30
2022-08-27T00:42:35.870Z,21.20
2022-08-27T00:42:45.306Z,21.20
2022-08-27T00:42:54.735Z,21.20
2022-08-27T00:43:04.173Z,21.20
2022-08-27T00:43:13.603Z,21.20
2022-08-27T00:43:23.091Z,21.20
2022-08-27T00:43:32.686Z,21.20
2022-08-27T00:43:42.099Z,21.20
2022-08-27T00:43:51.830Z,21.20
2022-08-27T00:44:01.315Z,21.20
2022-08-27T00:44:10.736Z,21.20
2022-08-27T00:44:20.197Z,21.20
2022-08-27T00:44:29.618Z,21.30
2022-08-27T00:44:39.027Z,21.20
2022-08-27T00:44:48.454Z,21.20
2022-08-27T00:44:57.845Z,21.20
2022-08-27T00:45:07.294Z,21.20
2022-08-27T00:45:16.778Z,21.20
2022-08-27T00:45:35.820Z,21.20
2022-08-27T00:45:45.104Z,21.20
2022-08-27T00:45:54.530Z,21.20
2022-08-27T00:46:03.986Z,21.20
2022-08-27T00:46:13.394Z,21.20
2022-08-27T00:46:22.804Z,21.20
2022-08-27T00:46:32.240Z,21.20
2022-08-27T00:46:41.674Z,21.20
2022-08-27T00:46:51.124Z,21.20
2022-08-27T00:47:00.543Z,21.20
2022-08-27T00:47:09.966Z,21.20
2022-08-27T00:47:19.431Z,21.30
2022-08-27T00:47:28.878Z,21.20
2022-08-27T00:47:38.293Z,21.20
2022-08-27T00:47:47.722Z,21.20
2022-08-27T00:47:57.187Z,21.20
2022-08-27T00:48:18.380Z,21.20
2022-08-27T00:48:25.478Z,21.20
2022-08-27T00:48:34.912Z,21.30
2022-08-27T00:48:44.349Z,21.20
2022-08-27T00:48:53.808Z,21.20
2022-08-27T00:49:03.267Z,21.20
2022-08-27T00:49:12.718Z,21.20
2022-08-27T00:49:22.152Z,21.20
2022-08-27T00:49:31.629Z,21.20
2022-08-27T00:49:41.047Z,21.20
2022-08-27T00:49:50.480Z,21.20
2022-08-27T00:49:59.953Z,21.20
2022-08-27T00:50:09.368Z,21.20
2022-08-27T00:50:18.831Z,21.20
2022-08-27T00:50:28.250Z,21.20
2022-08-27T00:50:37.674Z,21.30
2022-08-27T00:50:47.094Z,21.20
2022-08-27T00:51:05.940Z,21.20
2022-08-27T00:51:15.741Z,21.20
2022-08-27T00:51:25.217Z,21.30
2022-08-27T00:51:34.643Z,21.20
2022-08-27T00:51:44.069Z,21.30
2022-08-27T00:51:53.545Z,21.20
2022-08-27T00:52:02.963Z,21.20
2022-08-27T00:52:12.398Z,21.20
2022-08-27T00:52:21.919Z,21.20
2022-08-27T00:52:31.396Z,21.20
2022-08-27T00:52:40.832Z,21.20
2022-08-27T00:52:50.303Z,21.20
2022-08-27T00:52:59.738Z,21.20
2022-08-27T00:53:09.176Z,21.30
2022-08-27T00:53:18.824Z,21.30
2022-08-27T00:53:28.258Z,21.30
2022-08-27T00:53:37.684Z,21.30
2022-08-27T00:53:47.121Z,21.30
2022-08-27T00:54:05.993Z,21.30
2022-08-27T00:54:18.714Z,21.30
2022-08-27T00:54:24.870Z,21.30
2022-08-27T00:54:34.290Z,21.30
2022-08-27T00:54:43.716Z,21.30
2022-08-27T00:54:53.172Z,21.30
2022-08-27T00:55:02.636Z,21.30
2022-08-27T00:55:12.095Z,21.30
2022-08-27T00:55:21.603Z,21.40
2022-08-27T00:55:31.041Z,21.40
2022-08-27T00:55:40.485Z,21.40
2022-08-27T00:55:49.943Z,21.40
2022-08-27T00:55:59.354Z,21.40
2022-08-27T00:56:08.802Z,21.40
2022-08-27T00:56:18.255Z,21.40
2022-08-27T00:56:27.668Z,21.40
2022-08-27T00:56:37.107Z,21.40
2022-08-27T00:56:56.014Z,21.40
2022-08-27T00:57:05.432Z,21.40
2022-08-27T00:57:14.860Z,21.40
2022-08-27T00:57:24.314Z,21.40
2022-08-27T00:57:33.744Z,21.40
2022-08-27T00:57:43.250Z,21.40
2022-08-27T00:57:52.678Z,21.40
2022-08-27T00:58:02.124Z,21.40
2022-08-27T00:58:11.906Z,21.40
2022-08-27T00:58:20.969Z,21.50
2022-08-27T00:58:30.406Z,21.40
2022-08-27T00:58:39.839Z,21.50
2022-08-27T00:58:49.265Z,21.50
2022-08-27T00:58:58.709Z,21.50
2022-08-27T00:59:08.145Z,21.40
2022-08-27T00:59:17.600Z,21.40
2022-08-27T00:59:27.052Z,21.40
2022-08-27T00:59:45.860Z,21.40
2022-08-27T00:59:55.284Z,21.40
2022-08-27T01:00:04.717Z,21.40
2022-08-27T01:00:14.324Z,21.40
2022-08-27T01:00:23.785Z,21.40
2022-08-27T01:00:33.380Z,21.40
2022-08-27T01:00:42.724Z,21.40
2022-08-27T01:00:52.145Z,21.50
2022-08-27T01:01:01.612Z,21.40
2022-08-27T01:01:11.086Z,21.50
2022-08-27T01:01:20.493Z,21.50
2022-08-27T01:01:29.958Z,21.50
2022-08-27T01:01:39.289Z,21.50
2022-08-27T01:01:48.750Z,21.50
2022-08-27T01:01:58.191Z,21.50
2022-08-27T01:02:07.600Z,21.50
2022-08-27T01:02:17.045Z,21.50
2022-08-27T01:02:35.977Z,21.60
2022-08-27T01:02:45.279Z,21.60
2022-08-27T01:02:54.706Z,21.60
2022-08-27T01:03:04.143Z,21.70
2022-08-27T01:03:13.550Z,21.70
2022-08-27T01:03:23.052Z,21.70
2022-08-27T01:03:32.487Z,21.70
2022-08-27T01:03:41.931Z,21.70
2022-08-27T01:03:51.414Z,21.80
2022-08-27T01:04:00.850Z,21.80
2022-08-27T01:04:10.291Z,21.80
2022-08-27T01:04:19.731Z,21.80
2022-08-27T01:04:29.216Z,21.80
2022-08-27T01:04:38.693Z,21.90
2022-08-27T01:04:48.159Z,21.90
2022-08-27T01:04:57.571Z,21.90
2022-08-27T01:05:06.990Z,21.90
2022-08-27T01:05:25.875Z,22.00
2022-08-27T01:05:35.300Z,22.00
2022-08-27T01:05:44.724Z,22.00
2022-08-27T01:05:54.191Z,22.10
2022-08-27T01:06:03.604Z,22.10
2022-08-27T01:06:16.168Z,22.10
2022-08-27T01:06:22.506Z,22.10
2022-08-27T01:06:31.943Z,22.20
2022-08-27T01:06:41.394Z,22.20
2022-08-27T01:06:50.834Z,22.20
2022-08-27T01:07:00.291Z,22.20
2022-08-27T01:07:09.714Z,22.20
2022-08-27T01:07:19.154Z,22.20
2022-08-27T01:07:28.769Z,22.20
2022-08-27T01:07:38.005Z,22.30
2022-08-27T01:07:47.543Z,22.30
2022-08-27T01:07:56.990Z,22.30
2022-08-27T01:08:15.848Z,22.40
2022-08-27T01:08:25.254Z,22.40
2022-08-27T01:08:34.680Z,22.40
2022-08-27T01:08:44.089Z,22.40
2022-08-27T01:08:53.516Z,22.40
2022-08-27T01:09:02.928Z,22.40
2022-08-27T01:09:12.352Z,22.50
2022-08-27T01:09:21.790Z,22.50
2022-08-27T01:09:31.179Z,22.50
2022-08-27T01:09:40.597Z,22.50
2022-08-27T01:09:50.149Z,22.50
2022-08-27T01:09:59.475Z,22.60
2022-08-27T01:10:08.932Z,22.60
2022-08-27T01:10:18.358Z,22.60
2022-08-27T01:10:27.776Z,22.60
2022-08-27T01:10:37.216Z,22.60
2022-08-27T01:10:56.069Z,22.60
2022-08-27T01:11:05.520Z,22.60
2022-08-27T01:11:14.960Z,22.60
2022-08-27T01:11:24.503Z,22.70
2022-08-27T01:11:33.923Z,22.70
2022-08-27T01:11:43.345Z,22.70
2022-08-27T01:11:52.778Z,22.70
2022-08-27T01:12:02.212Z,22.70
2022-08-27T01:12:11.635Z,22.70
2022-08-27T01:12:21.057Z,22.70
2022-08-27T01:12:30.508Z,22.80
2022-08-27T01:12:40.018Z,22.80
2022-08-27T01:12:53.705Z,22.80
2022-08-27T01:12:58.943Z,22.80
2022-08-27T01:13:08.372Z,22.80
2022-08-27T01:13:17.998Z,22.80
2022-08-27T01:13:57.098Z,22.80
2022-08-27T01:13:58.793Z,22.80
2022-08-27T01:14:00.339Z,22.80
2022-08-27T01:14:01.321Z,22.80
2022-08-27T01:14:08.987Z,22.80
2022-08-27T01:14:18.626Z,22.80
2022-08-27T01:14:28.286Z,22.80
2022-08-27T01:14:37.806Z,22.90
2022-08-27T01:14:47.537Z,22.90
2022-08-27T01:14:56.949Z,22.90
2022-08-27T01:15:19.470Z,22.90
2022-08-27T01:15:25.235Z,22.90
2022-08-27T01:15:34.648Z,22.90
2022-08-27T01:15:44.074Z,22.90
2022-08-27T01:15:53.533Z,22.90
2022-08-27T01:16:02.990Z,22.90
2022-08-27T01:16:12.486Z,22.90
2022-08-27T01:16:21.990Z,23.00
2022-08-27T01:16:31.417Z,23.00
2022-08-27T01:16:40.786Z,23.00
2022-08-27T01:16:50.183Z,23.00
2022-08-27T01:16:59.608Z,23.00
2022-08-27T01:17:09.049Z,23.00
2022-08-27T01:17:18.489Z,23.00
2022-08-27T01:17:27.956Z,23.00
2022-08-27T01:17:37.407Z,23.00
2022-08-27T01:17:46.822Z,23.00
2022-08-27T01:18:05.663Z,23.00
2022-08-27T01:18:15.072Z,23.00
2022-08-27T01:18:24.534Z,23.00
2022-08-27T01:18:33.965Z,23.00
2022-08-27T01:18:44.599Z,23.00
2022-08-27T01:18:52.804Z,23.00
2022-08-27T01:19:02.265Z,23.00
2022-08-27T01:19:11.712Z,23.00
2022-08-27T01:19:21.161Z,23.00
2022-08-27T01:19:30.584Z,23.00
2022-08-27T01:19:40.001Z,23.10
2022-08-27T01:19:49.431Z,23.00
2022-08-27T01:19:58.887Z,23.00
2022-08-27T01:20:08.314Z,23.00
2022-08-27T01:20:17.788Z,23.10
2022-08-27T01:20:27.218Z,23.10
2022-08-27T01:20:36.732Z,23.00
2022-08-27T01:20:55.584Z,23.00
2022-08-27T01:21:04.998Z,23.10
2022-08-27T01:21:14.458Z,23.10
2022-08-27T01:21:23.878Z,23.10
2022-08-27T01:21:33.275Z,23.10
2022-08-27T01:21:42.678Z,23.10
2022-08-27T01:21:52.135Z,23.10
2022-08-27T01:22:01.616Z,23.10
2022-08-27T01:22:11.066Z,23.10
2022-08-27T01:22:23.108Z,23.10
2022-08-27T01:22:29.945Z,23.10
2022-08-27T01:22:39.374Z,23.10
2022-08-27T01:22:48.858Z,23.10
2022-08-27T01:22:58.313Z,23.10
2022-08-27T01:23:07.756Z,23.10
2022-08-27T01:23:17.208Z,23.10
2022-08-27T01:23:36.079Z,23.10
2022-08-27T01:23:45.522Z,23.10
2022-08-27T01:23:54.981Z,23.10
2022-08-27T01:24:04.423Z,23.10
2022-08-27T01:24:13.847Z,23.10
2022-08-27T01:24:23.313Z,23.10
2022-08-27T01:24:32.752Z,23.10
2022-08-27T01:24:42.185Z,23.10
2022-08-27T01:24:51.608Z,23.00
2022-08-27T01:25:01.035Z,23.00
2022-08-27T01:25:10.448Z,23.00
2022-08-27T01:25:19.873Z,23.00
2022-08-27T01:25:29.300Z,23.00
2022-08-27T01:25:38.737Z,23.00
2022-08-27T01:25:48.222Z,22.90
2022-08-27T01:25:57.632Z,22.90
2022-08-27T01:26:07.160Z,22.90
2022-08-27T01:26:25.954Z,22.80
2022-08-27T01:26:35.411Z,22.80
2022-08-27T01:26:44.840Z,22.80
2022-08-27T01:26:54.266Z,22.70
2022-08-27T01:27:03.724Z,22.70
2022-08-27T01:27:13.649Z,22.70
2022-08-27T01:27:22.599Z,22.60
2022-08-27T01:27:32.073Z,22.60
2022-08-27T01:27:41.557Z,22.60
2022-08-27T01:27:51.080Z,22.60
2022-08-27T01:28:00.509Z,22.60
2022-08-27T01:28:10.124Z,22.60
2022-08-27T01:28:19.752Z,22.50
2022-08-27T01:28:36.288Z,22.50
2022-08-27T01:28:38.292Z,22.50
2022-08-27T01:28:47.756Z,22.50
2022-08-27T01:28:57.167Z,22.40
2022-08-27T01:29:16.057Z,22.40
2022-08-27T01:29:25.496Z,22.40
2022-08-27T01:29:34.937Z,22.30
2022-08-27T01:29:44.389Z,22.40
2022-08-27T01:29:53.825Z,22.30
2022-08-27T01:30:03.275Z,22.30
2022-08-27T01:30:12.705Z,22.30
2022-08-27T01:30:22.148Z,22.20
2022-08-27T01:30:31.557Z,22.20
2022-08-27T01:30:40.982Z,22.20
2022-08-27T01:30:50.427Z,22.20
2022-08-27T01:30:59.851Z,22.20
2022-08-27T01:31:09.364Z,22.20
2022-08-27T01:31:18.773Z,22.20
2022-08-27T01:31:28.358Z,22.10
2022-08-27T01:31:37.708Z,22.10
2022-08-27T01:31:47.100Z,22.10
2022-08-27T01:32:05.916Z,22.10
2022-08-27T01:32:15.352Z,22.10
2022-08-27T01:32:24.766Z,22.10
2022-08-27T01:32:34.175Z,22.10
2022-08-27T01:32:43.579Z,22.00
2022-08-27T01:32:52.999Z,22.00
2022-08-27T01:33:02.442Z,22.00
2022-08-27T01:33:11.963Z,22.00
2022-08-27T01:33:21.327Z,22.00
2022-08-27T01:33:30.741Z,22.00
2022-08-27T01:33:40.160Z,22.00
2022-08-27T01:33:49.599Z,22.00
2022-08-27T01:33:59.014Z,22.10
2022-08-27T01:34:08.446Z,22.10
2022-08-27T01:34:17.855Z,22.10
2022-08-27T01:34:27.272Z,22.00
2022-08-27T01:34:46.126Z,22.10
2022-08-27T01:34:55.553Z,22.10
2022-08-27T01:35:04.989Z,22.10
2022-08-27T01:35:14.412Z,22.10
2022-08-27T01:35:23.846Z,22.10
2022-08-27T01:35:33.353Z,22.10
2022-08-27T01:35:42.783Z,22.10
2022-08-27T01:35:52.226Z,22.20
2022-08-27T01:36:01.641Z,22.20
2022-08-27T01:36:11.081Z,22.20
2022-08-27T01:36:25.050Z,22.20
2022-08-27T01:36:34.496Z,22.20
2022-08-27T01:36:43.912Z,22.20
2022-08-27T01:36:57.346Z,22.20
2022-08-27T01:37:02.767Z,22.30
2022-08-27T01:37:12.166Z,22.30
2022-08-27T01:37:24.006Z,22.30
2022-08-27T01:37:31.009Z,22.30
2022-08-27T01:37:40.440Z,22.30
2022-08-27T01:37:49.858Z,22.30
2022-08-27T01:37:59.272Z,22.30
2022-08-27T01:38:12.031Z,22.40
2022-08-27T01:38:30.161Z,22.40
2022-08-27T01:38:30.428Z,22.40
2022-08-27T01:38:36.964Z,22.40
2022-08-27T01:38:55.810Z,22.40
2022-08-27T01:39:05.394Z,22.40
2022-08-27T01:39:14.718Z,22.40
2022-08-27T01:39:24.144Z,22.50
2022-08-27T01:39:33.620Z,22.50
2022-08-27T01:39:43.046Z,22.50
2022-08-27T01:39:52.606Z,22.50
2022-08-27T01:40:02.038Z,22.60
2022-08-27T01:40:13.572Z,22.50
2022-08-27T01:40:20.892Z,22.60
2022-08-27T01:40:30.340Z,22.60
2022-08-27T01:40:39.682Z,22.60
2022-08-27T01:40:49.118Z,22.60
2022-08-27T01:40:58.543Z,22.60
2022-08-27T01:41:07.976Z,22.60
2022-08-27T01:41:17.380Z,22.60
2022-08-27T01:41:26.917Z,22.60
2022-08-27T01:41:45.806Z,22.60
2022-08-27T01:41:55.212Z,22.60
2022-08-27T01:42:04.642Z,22.70
2022-08-27T01:42:14.076Z,22.70
2022-08-27T01:42:23.572Z,22.70
2022-08-27T01:42:33.016Z,22.70
2022-08-27T01:42:42.456Z,22.70
2022-08-27T01:42:51.893Z,22.70
2022-08-27T01:43:01.361Z,22.70
2022-08-27T01:43:10.780Z,22.70
2022-08-27T01:43:20.401Z,22.80
2022-08-27T01:43:29.687Z,22.80
2022-08-27T01:43:39.099Z,22.80
2022-08-27T01:43:48.577Z,22.80
2022-08-27T01:43:57.987Z,22.80
2022-08-27T01:44:07.409Z,22.80
2022-08-27T01:44:20.474Z,22.80
2022-08-27T01:44:35.686Z,22.80
2022-08-27T01:44:45.132Z,22.80
2022-08-27T01:44:54.558Z,22.80
2022-08-27T01:45:05.903Z,22.80
2022-08-27T01:45:13.422Z,22.80
2022-08-27T01:45:22.838Z,22.80
2022-08-27T01:45:32.310Z,22.80
2022-08-27T01:45:41.727Z,22.80
2022-08-27T01:45:51.184Z,22.80
2022-08-27T01:46:00.619Z,22.80
2022-08-27T01:46:10.041Z,22.90
2022-08-27T01:46:19.500Z,22.80
2022-08-27T01:46:29.063Z,22.80
2022-08-27T01:46:38.427Z,22.90
2022-08-27T01:46:47.894Z,22.90
2022-08-27T01:46:57.308Z,22.90
2022-08-27T01:47:16.098Z,22.90
2022-08-27T01:47:30.620Z,22.90
2022-08-27T01:47:34.955Z,22.90
2022-08-27T01:47:44.362Z,22.90
2022-08-27T01:47:53.847Z,22.90
2022-08-27T01:48:03.324Z,22.90
2022-08-27T01:48:12.696Z,22.90
2022-08-27T01:48:22.136Z,22.90
2022-08-27T01:48:31.540Z,22.90
2022-08-27T01:48:40.960Z,22.90
2022-08-27T01:48:50.414Z,22.90
2022-08-27T01:48:59.824Z,22.90
2022-08-27T01:49:09.250Z,22.90
2022-08-27T01:49:18.700Z,23.00
2022-08-27T01:49:28.120Z,23.00
2022-08-27T01:49:37.573Z,23.00
2022-08-27T01:49:46.986Z,23.00
2022-08-27T01:50:05.825Z,23.00
2022-08-27T01:50:15.236Z,23.00
2022-08-27T01:50:24.662Z,23.00
2022-08-27T01:50:34.086Z,23.00
2022-08-27T01:50:43.505Z,23.00
2022-08-27T01:50:52.914Z,23.00
2022-08-27T01:51:02.332Z,23.00
2022-08-27T01:51:11.752Z,23.00
2022-08-27T01:51:21.185Z,23.00
2022-08-27T01:51:30.620Z,23.00
2022-08-27T01:51:40.136Z,23.00
2022-08-27T01:51:49.653Z,23.00
2022-08-27T01:51:59.150Z,23.00
2022-08-27T01:52:08.592Z,23.00
2022-08-27T01:52:18.008Z,23.00
2022-08-27T01:52:27.440Z,23.00
2022-08-27T01:52:36.850Z,23.00
2022-08-27T01:52:55.701Z,23.00
2022-08-27T01:53:05.126Z,23.00
2022-08-27T01:53:14.584Z,23.00
2022-08-27T01:53:24.017Z,23.00
2022-08-27T01:53:33.426Z,23.00
2022-08-27T01:53:42.869Z,23.00
2022-08-27T01:53:52.287Z,23.00
2022-08-27T01:54:01.731Z,23.00
2022-08-27T01:54:11.166Z,23.00
2022-08-27T01:54:20.616Z,23.00
2022-08-27T01:54:30.111Z,23.00
2022-08-27T01:54:39.542Z,23.00
2022-08-27T01:54:48.974Z,23.00
2022-08-27T01:54:58.387Z,23.00
2022-08-27T01:55:07.807Z,23.00
2022-08-27T01:55:17.215Z,23.00
2022-08-27T01:55:36.058Z,23.00
2022-08-27T01:55:48.222Z,23.00
2022-08-27T01:55:54.878Z,23.00
2022-08-27T01:56:04.319Z,23.00
2022-08-27T01:56:13.737Z,23.00
2022-08-27T01:56:23.165Z,23.00
2022-08-27T01:56:32.610Z,23.00
2022-08-27T01:56:42.032Z,23.00
2022-08-27T01:56:51.435Z,23.10
2022-08-27T01:57:00.837Z,23.00
2022-08-27T01:57:10.274Z,23.10
2022-08-27T01:57:22.958Z,23.10
2022-08-27T01:57:29.116Z,23.00
2022-08-27T01:57:38.508Z,23.10
2022-08-27T01:57:47.932Z,23.10
2022-08-27T01:57:57.354Z,23.10
2022-08-27T01:58:06.845Z,23.10
2022-08-27T01:58:25.640Z,23.10
2022-08-27T01:58:35.057Z,23.10
2022-08-27T01:58:44.472Z,23.10
2022-08-27T01:58:53.905Z,23.10
2022-08-27T01:59:03.329Z,23.10
2022-08-27T01:59:12.749Z,23.10
2022-08-27T01:59:22.194Z,23.10
2022-08-27T01:59:39.785Z,23.10
2022-08-27T01:59:41.041Z,23.10
2022-08-27T01:59:50.454Z,23.10
2022-08-27T01:59:59.849Z,23.10
2022-08-27T02:00:09.278Z,23.10
2022-08-27T02:00:18.704Z,23.10
2022-08-27T02:00:28.145Z,23.10
2022-08-27T02:00:37.617Z,23.10
2022-08-27T02:00:47.076Z,23.10
2022-08-27T02:01:05.970Z,23.10
2022-08-27T02:01:15.320Z,23.10
2022-08-27T02:01:24.767Z,23.10
2022-08-27T02:01:34.160Z,23.10
2022-08-27T02:01:43.646Z,23.10
2022-08-27T02:01:53.096Z,23.10
2022-08-27T02:02:02.554Z,23.10
2022-08-27T02:02:12.014Z,23.10
2022-08-27T02:02:21.411Z,23.10
2022-08-27T02:02:30.827Z,23.10
2022-08-27T02:02:40.198Z,23.10
2022-08-27T02:02:49.614Z,23.10
2022-08-27T02:02:59.034Z,23.10
2022-08-27T02:03:08.459Z,23.10
2022-08-27T02:03:17.892Z,23.10
2022-08-27T02:03:27.379Z,23.10
2022-08-27T02:03:36.809Z,23.10
2022-08-27T02:03:55.662Z,23.10
2022-08-27T02:04:05.056Z,23.10
2022-08-27T02:04:14.473Z,23.10
2022-08-27T02:04:23.952Z,23.10
2022-08-27T02:04:33.362Z,23.10
2022-08-27T02:04:42.786Z,23.10
2022-08-27T02:04:52.225Z,23.10
2022-08-27T02:05:01.625Z,23.10
2022-08-27T02:05:11.036Z,23.10
2022-08-27T02:05:20.466Z,23.10
2022-08-27T02:05:29.882Z,23.10
2022-08-27T02:05:44.597Z,23.10
2022-08-27T02:05:48.719Z,23.10
2022-08-27T02:05:58.118Z,23.10
2022-08-27T02:06:07.544Z,23.20
2022-08-27T02:06:16.986Z,23.20
2022-08-27T02:06:36.585Z,23.10
2022-08-27T02:06:46.036Z,23.20
2022-08-27T02:06:55.453Z,23.20
2022-08-27T02:07:04.862Z,23.20
2022-08-27T02:07:14.291Z,23.20
2022-08-27T02:07:23.726Z,23.20
2022-08-27T02:07:33.138Z,23.20
2022-08-27T02:07:42.556Z,23.20
2022-08-27T02:07:51.992Z,23.10
2022-08-27T02:08:01.440Z,23.20
2022-08-27T02:08:11.041Z,23.20
2022-08-27T02:08:20.283Z,23.20
2022-08-27T02:08:29.694Z,23.20
2022-08-27T02:08:39.133Z,23.20